Time;durP1;ratioP1;P1;durP2;ratioP2;P2;SDS_P1;SDS_P2;PMS_P1;PMS_P2;Temp;Humidity;BMP_temperature;BMP_pressure;BME280_temperature;BME280_humidity;BME280_pressure;Samples;Min_cycle;Max_cycle;Signal;HPM_P1;HPM_P2
2023/05/19 00:01:20;;;;;;;3.03;1.60;;;;;;;8.24;53.83;100747.94;10396708;28;20103;-78
2023/05/19 00:06:24;;;;;;;2.38;1.50;;;;;;;8.21;54.29;100747.22;10371034;28;20041;-78
2023/05/19 00:11:27;;;;;;;2.00;1.38;;;;;;;8.26;54.32;100747.91;10373904;28;20049;-78
2023/05/19 00:16:30;;;;;;;2.08;1.38;;;;;;;8.16;54.54;100742.16;10382952;28;20036;-78
2023/05/19 00:21:32;;;;;;;3.75;1.40;;;;;;;8.13;54.78;100742.28;10379021;28;20703;-78
2023/05/19 00:26:34;;;;;;;2.95;1.60;;;;;;;8.05;54.91;100736.47;10406696;28;20045;-78
2023/05/19 00:31:38;;;;;;;5.15;1.48;;;;;;;7.58;55.09;100732.97;10397719;28;20072;-78
2023/05/19 00:36:43;;;;;;;2.50;1.60;;;;;;;7.28;55.66;100728.81;10403095;28;20164;-78
2023/05/19 00:41:47;;;;;;;2.58;1.52;;;;;;;7.11;56.42;100726.78;10404144;28;20041;-78
2023/05/19 00:46:49;;;;;;;1.67;1.20;;;;;;;7.11;56.19;100718.97;10385799;28;20038;-78
2023/05/19 00:51:52;;;;;;;2.42;1.40;;;;;;;7.15;56.41;100724.91;10401197;28;20044;-78
2023/05/19 00:56:55;;;;;;;2.15;1.60;;;;;;;6.94;56.55;100717.81;10402465;28;20534;-78
2023/05/19 01:01:57;;;;;;;2.30;1.35;;;;;;;7.11;56.63;100713.78;10402533;28;20493;-78
2023/05/19 01:06:59;;;;;;;2.08;1.30;;;;;;;6.66;56.84;100719.59;10375424;28;20050;-78
2023/05/19 01:12:02;;;;;;;2.22;1.23;;;;;;;6.77;57.13;100720.13;10396856;28;20120;-78
2023/05/19 01:17:28;;;;;;;1.55;1.20;;;;;;;6.77;59.02;100720.13;10404820;28;20041;-78
2023/05/19 01:23:00;;;;;;;2.22;1.45;;;;;;;6.85;58.88;100723.31;10398429;28;20064;-78
2023/05/19 01:28:05;;;;;;;2.45;1.60;;;;;;;6.97;57.55;100728.13;10384320;28;20498;-78
2023/05/19 01:33:14;;;;;;;1.77;1.30;;;;;;;7.07;57.28;100729.53;10396461;28;20483;-78
2023/05/19 01:38:18;;;;;;;3.80;1.38;;;;;;;6.89;57.03;100724.91;10387639;28;20046;-78
2023/05/19 01:43:24;;;;;;;2.28;1.25;;;;;;;6.47;57.84;100721.06;10384326;28;20095;-78
2023/05/19 01:48:27;;;;;;;3.17;1.30;;;;;;;6.55;57.98;100724.28;10384734;28;20803;-78
2023/05/19 01:53:31;;;;;;;2.75;1.50;;;;;;;6.64;57.92;100723.97;10381355;28;20053;-78
2023/05/19 01:58:37;;;;;;;1.98;1.20;;;;;;;6.78;58.16;100733.06;10382002;28;20050;-78
2023/05/19 02:04:01;;;;;;;1.92;1.30;;;;;;;6.85;58.04;100729.38;10390437;28;20059;-78
2023/05/19 02:09:15;;;;;;;3.00;1.35;;;;;;;6.44;58.22;100726.34;10394092;28;20133;-78
2023/05/19 02:14:32;;;;;;;2.30;1.30;;;;;;;6.12;59.14;100722.09;10393529;28;20056;-78
2023/05/19 02:19:38;;;;;;;2.03;1.23;;;;;;;6.26;58.82;100723.41;10390974;28;20041;-78
2023/05/19 02:24:40;;;;;;;2.15;1.38;;;;;;;6.32;58.62;100722.38;10408354;28;20084;-78
2023/05/19 02:29:42;;;;;;;1.95;1.25;;;;;;;6.34;58.60;100721.44;10392743;28;20045;-78
2023/05/19 02:34:44;;;;;;;1.98;1.23;;;;;;;6.32;58.65;100719.78;10395638;28;20054;-78
2023/05/19 02:39:46;;;;;;;2.97;1.40;;;;;;;6.45;58.58;100712.47;10392336;28;20084;-78
2023/05/19 02:44:48;;;;;;;1.10;1.00;;;;;;;6.43;58.39;100716.88;10416988;28;20521;-78
2023/05/19 02:49:51;;;;;;;2.47;1.33;;;;;;;6.33;58.50;100711.94;10411012;28;20037;-78
2023/05/19 02:54:53;;;;;;;1.13;1.00;;;;;;;6.35;58.28;100702.34;10399600;28;20050;-78
2023/05/19 02:59:55;;;;;;;2.58;1.33;;;;;;;6.25;58.20;100713.91;10391666;28;20377;-78
2023/05/19 03:04:57;;;;;;;2.22;1.15;;;;;;;6.17;58.71;100713.25;10395473;28;20542;-78
2023/05/19 03:10:02;;;;;;;2.33;1.20;;;;;;;6.10;59.25;100713.47;10405970;28;20059;-78
2023/05/19 03:15:05;;;;;;;1.38;1.05;;;;;;;6.06;58.99;100715.28;10403771;28;20061;-78
2023/05/19 03:20:09;;;;;;;1.25;1.10;;;;;;;6.03;58.95;100707.63;10392560;28;20140;-78
2023/05/19 03:25:11;;;;;;;1.88;1.40;;;;;;;5.96;59.16;100713.84;10381429;28;20081;-78
2023/05/19 03:30:14;;;;;;;1.95;1.23;;;;;;;5.98;59.08;100713.84;10398662;28;20573;-78
2023/05/19 03:35:36;;;;;;;2.33;1.30;;;;;;;5.97;59.14;100709.53;10397558;28;20083;-78
2023/05/19 03:40:40;;;;;;;1.55;1.20;;;;;;;6.01;58.98;100700.75;10408009;28;20553;-78
2023/05/19 03:45:45;;;;;;;2.45;1.40;;;;;;;6.06;58.89;100704.09;10393846;28;20069;-78
2023/05/19 03:51:06;;;;;;;2.58;1.48;;;;;;;6.04;58.94;100709.28;10398674;28;20041;-78
2023/05/19 03:56:12;;;;;;;1.40;1.10;;;;;;;6.06;58.91;100710.09;10389690;28;20063;-79
2023/05/19 04:01:14;;;;;;;2.13;1.40;;;;;;;6.11;58.78;100713.44;10385887;28;20103;-78
2023/05/19 04:06:17;;;;;;;2.00;1.10;;;;;;;6.25;58.60;100715.66;10365227;28;20056;-79
2023/05/19 04:11:20;;;;;;;2.00;1.27;;;;;;;6.32;58.46;100712.84;10394290;28;20175;-78
2023/05/19 04:16:22;;;;;;;1.65;1.30;;;;;;;6.48;58.28;100727.94;10395899;28;20132;-78
2023/05/19 04:21:24;;;;;;;2.08;1.35;;;;;;;6.83;58.22;100723.38;10390511;28;20045;-78
2023/05/19 04:26:29;;;;;;;2.10;1.40;;;;;;;7.83;56.83;100723.38;10376286;28;20064;-79
2023/05/19 04:31:33;;;;;;;2.05;1.25;;;;;;;10.61;52.57;100703.84;10396526;28;20048;-79
2023/05/19 04:36:37;;;;;;;2.17;1.48;;;;;;;13.00;48.58;100699.06;10367505;28;20411;-79
2023/05/19 04:41:42;;;;;;;1.80;1.30;;;;;;;14.86;45.70;100699.75;10386147;28;20395;-79
2023/05/19 04:46:44;;;;;;;1.58;1.30;;;;;;;16.41;43.29;100695.19;10390728;28;20434;-79
2023/05/19 04:51:49;;;;;;;2.42;1.25;;;;;;;17.27;41.54;100694.09;10357414;28;20042;-78
2023/05/19 04:56:58;;;;;;;1.25;1.10;;;;;;;18.12;40.13;100691.81;10370124;28;20053;-79
2023/05/19 05:02:03;;;;;;;2.00;1.50;;;;;;;19.11;38.43;100680.22;10379996;28;20103;-79
2023/05/19 05:07:05;;;;;;;2.17;1.30;;;;;;;19.75;37.17;100680.88;10405969;28;20410;-78
2023/05/19 05:12:08;;;;;;;1.48;1.10;;;;;;;19.99;36.69;100673.47;10395783;28;20049;-79
2023/05/19 05:17:12;;;;;;;2.00;1.23;;;;;;;19.54;36.66;100674.78;10398282;28;20513;-79
2023/05/19 05:22:16;;;;;;;1.60;1.10;;;;;;;18.95;36.93;100679.75;10381640;28;20041;-79
2023/05/19 05:27:18;;;;;;;1.35;1.20;;;;;;;16.82;38.19;100686.00;10397753;28;20057;-80
2023/05/19 05:32:20;;;;;;;1.67;1.20;;;;;;;14.61;40.44;100691.78;10379702;28;20049;-79
2023/05/19 05:37:23;;;;;;;2.00;1.27;;;;;;;13.17;42.53;100699.75;10383463;28;20051;-79
2023/05/19 05:42:25;;;;;;;1.50;1.13;;;;;;;12.30;44.32;100695.13;10362284;28;20049;-78
2023/05/19 05:47:31;;;;;;;2.60;1.40;;;;;;;11.89;45.24;100686.84;10380743;28;20049;-78
2023/05/19 05:52:38;;;;;;;3.00;1.33;;;;;;;11.67;46.46;100696.75;10409892;28;20410;-78
2023/05/19 05:57:41;;;;;;;2.28;1.20;;;;;;;11.54;46.92;100698.31;10391633;28;20038;-78
2023/05/19 06:02:49;;;;;;;2.03;1.20;;;;;;;11.51;47.45;100697.63;10381535;28;20052;-79
2023/05/19 06:07:53;;;;;;;4.63;1.38;;;;;;;11.61;47.61;100704.94;10384066;28;20044;-79
2023/05/19 06:13:00;;;;;;;5.15;1.20;;;;;;;11.60;47.76;100705.03;10383658;28;20128;-79
2023/05/19 06:18:02;;;;;;;3.20;1.25;;;;;;;11.25;47.42;100712.88;10389480;28;20061;-78
2023/05/19 06:23:04;;;;;;;2.95;1.15;;;;;;;11.23;47.17;100703.44;10396829;28;20128;-78
2023/05/19 06:28:06;;;;;;;2.55;1.13;;;;;;;11.35;46.84;100709.81;10390108;28;20034;-78
2023/05/19 06:33:08;;;;;;;2.17;1.30;;;;;;;11.54;46.67;100700.09;10396782;28;20046;-78
2023/05/19 06:38:12;;;;;;;1.58;1.30;;;;;;;11.72;46.39;100697.34;10395028;28;20140;-78
2023/05/19 06:43:15;;;;;;;2.97;1.58;;;;;;;11.77;46.15;100694.50;10386376;28;20042;-78
2023/05/19 06:48:29;;;;;;;1.95;1.17;;;;;;;11.96;46.74;100688.22;10405089;28;20080;-79
2023/05/19 06:53:32;;;;;;;3.55;1.30;;;;;;;12.32;45.92;100692.41;10406379;28;20057;-79
2023/05/19 06:58:38;;;;;;;1.63;1.10;;;;;;;12.45;45.56;100686.44;10391816;28;20042;-78
2023/05/19 07:03:42;;;;;;;4.75;1.70;;;;;;;12.65;45.22;100686.16;10381119;28;20045;-78
2023/05/19 07:08:45;;;;;;;3.13;1.52;;;;;;;12.67;45.44;100686.91;10378930;28;20458;-78
2023/05/19 07:13:48;;;;;;;4.80;1.40;;;;;;;12.92;45.20;100684.56;10373407;28;20743;-77
2023/05/19 07:18:56;;;;;;;2.38;1.33;;;;;;;13.15;44.90;100674.53;10375800;28;20140;-78
2023/05/19 07:23:58;;;;;;;1.98;1.33;;;;;;;13.31;44.73;100668.28;10389887;28;20087;-78
2023/05/19 07:29:02;;;;;;;3.50;1.48;;;;;;;14.10;44.53;100664.31;10397212;28;20048;-78
2023/05/19 07:34:04;;;;;;;2.33;1.10;;;;;;;16.00;42.63;100654.13;10382221;28;20061;-78
2023/05/19 07:39:06;;;;;;;1.63;1.08;;;;;;;17.36;39.55;100649.34;10377586;28;20056;-78
2023/05/19 07:44:09;;;;;;;2.05;1.20;;;;;;;17.93;37.42;100645.78;10385490;28;20045;-79
2023/05/19 07:49:11;;;;;;;1.50;1.00;;;;;;;18.16;37.87;100634.16;10404050;28;20124;-79
2023/05/19 07:54:13;;;;;;;1.35;1.00;;;;;;;17.54;38.02;100647.94;10374111;28;20053;-79
2023/05/19 07:59:15;;;;;;;2.10;1.10;;;;;;;17.51;37.98;100645.50;10404572;28;20033;-79
2023/05/19 08:04:17;;;;;;;1.83;1.00;;;;;;;18.47;37.35;100626.31;10386955;28;20045;-79
2023/05/19 08:09:19;;;;;;;3.38;1.15;;;;;;;19.57;35.63;100625.91;10384014;28;20048;-79
2023/05/19 08:14:21;;;;;;;3.00;1.20;;;;;;;20.05;34.44;100624.34;10380391;28;20053;-79
2023/05/19 08:19:23;;;;;;;2.00;1.10;;;;;;;20.31;33.96;100614.03;10382943;28;20041;-79
2023/05/19 08:24:28;;;;;;;1.92;1.08;;;;;;;20.41;34.61;100610.44;10375229;28;21917;-80
2023/05/19 08:29:30;;;;;;;2.47;1.08;;;;;;;21.66;33.24;100600.53;10381553;28;20033;-79
2023/05/19 08:34:32;;;;;;;1.88;1.20;;;;;;;22.03;30.76;100597.81;10371915;28;20136;-80
2023/05/19 08:39:35;;;;;;;2.40;1.10;;;;;;;21.59;30.69;100588.78;10395462;28;20045;-80
2023/05/19 08:44:38;;;;;;;2.35;1.10;;;;;;;21.21;30.14;100595.03;10378822;28;20041;-80
2023/05/19 08:49:44;;;;;;;3.30;1.08;;;;;;;20.82;29.97;100578.31;10390631;28;20454;-80
2023/05/19 08:54:53;;;;;;;2.63;1.15;;;;;;;20.74;30.09;100567.50;10388991;28;20125;-80
2023/05/19 08:59:57;;;;;;;1.70;1.00;;;;;;;21.01;30.57;100578.25;10403473;28;20041;-80
2023/05/19 09:05:00;;;;;;;3.65;1.00;;;;;;;20.68;31.39;100570.72;10370233;28;20148;-81
2023/05/19 09:10:03;;;;;;;2.13;1.10;;;;;;;20.46;32.17;100554.22;10403165;28;20041;-80
2023/05/19 09:15:07;;;;;;;2.47;1.10;;;;;;;20.37;31.90;100547.91;10406624;28;20042;-80
2023/05/19 09:20:11;;;;;;;1.33;0.95;;;;;;;20.32;29.14;100551.94;10359150;28;20046;-80
2023/05/19 09:25:24;;;;;;;3.05;1.10;;;;;;;20.46;30.16;100544.41;10380597;28;20156;-80
2023/05/19 09:30:28;;;;;;;3.03;1.30;;;;;;;20.26;31.59;100532.09;10369375;28;20045;-80
2023/05/19 09:35:33;;;;;;;1.35;0.90;;;;;;;21.14;29.83;100532.75;10383382;28;20117;-80
2023/05/19 09:40:36;;;;;;;4.25;1.13;;;;;;;21.14;29.97;100527.41;10380247;28;20042;-80
2023/05/19 09:45:38;;;;;;;1.83;1.10;;;;;;;21.10;29.95;100528.69;10379288;28;20068;-80
2023/05/19 09:50:43;;;;;;;2.80;1.33;;;;;;;20.78;28.57;100539.69;10391197;28;20034;-80
2023/05/19 09:55:45;;;;;;;2.88;1.10;;;;;;;20.36;30.03;100530.28;10384020;28;20052;-81
2023/05/19 10:00:49;;;;;;;2.97;1.17;;;;;;;21.07;29.76;100534.28;10384599;28;20407;-81
2023/05/19 10:05:52;;;;;;;2.38;1.00;;;;;;;21.26;29.50;100514.78;10393025;28;20050;-80
2023/05/19 10:10:55;;;;;;;1.33;1.00;;;;;;;20.96;29.38;100503.41;10379162;28;20049;-80
2023/05/19 10:15:57;;;;;;;1.83;1.10;;;;;;;20.82;29.06;100503.88;10380008;28;20505;-80
2023/05/19 10:21:01;;;;;;;4.38;1.00;;;;;;;21.07;28.67;100515.66;10382385;28;20052;-81
2023/05/19 10:26:05;;;;;;;1.23;0.90;;;;;;;20.24;28.68;100488.91;10405462;28;20053;-81
2023/05/19 10:31:13;;;;;;;2.00;1.13;;;;;;;20.54;28.78;100485.25;10402153;28;20053;-81
2023/05/19 10:36:45;;;;;;;2.42;1.38;;;;;;;20.49;27.24;100488.34;10406083;28;20053;-81
2023/05/19 10:42:11;;;;;;;1.95;0.88;;;;;;;19.51;30.20;100485.81;10386173;28;20049;-81
2023/05/19 10:47:13;;;;;;;1.60;0.90;;;;;;;19.74;29.43;100474.00;10368618;28;20038;-81
2023/05/19 10:52:20;;;;;;;1.38;0.90;;;;;;;19.22;29.15;100481.25;10393494;28;20033;-80
2023/05/19 10:57:31;;;;;;;2.13;1.00;;;;;;;18.87;30.35;100475.44;10394049;28;20037;-81
2023/05/19 11:02:40;;;;;;;3.80;1.00;;;;;;;18.82;29.16;100461.78;10383959;28;20056;-80
2023/05/19 11:08:04;;;;;;;1.30;1.00;;;;;;;18.67;29.30;100464.91;10388281;28;20045;-80
2023/05/19 11:13:06;;;;;;;1.25;1.02;;;;;;;18.99;29.77;100463.78;10387642;28;20460;-80
2023/05/19 11:18:09;;;;;;;1.08;0.80;;;;;;;19.39;29.74;100461.22;10383783;28;20494;-80
2023/05/19 11:23:18;;;;;;;1.58;1.00;;;;;;;19.41;28.72;100459.25;10395317;28;20058;-81
2023/05/19 11:28:26;;;;;;;3.17;1.17;;;;;;;19.44;27.99;100458.97;10382004;28;20096;-80
2023/05/19 11:33:31;;;;;;;1.90;1.10;;;;;;;20.24;28.27;100451.72;10374689;28;20046;-80
2023/05/19 11:38:33;;;;;;;1.85;1.05;;;;;;;20.14;28.18;100448.22;10409728;28;20041;-80
2023/05/19 11:43:35;;;;;;;2.28;0.98;;;;;;;19.95;28.17;100438.44;10388176;28;20045;-79
2023/05/19 11:48:37;;;;;;;1.50;0.88;;;;;;;20.27;28.61;100443.47;10378021;28;20049;-80
2023/05/19 11:54:04;;;;;;;1.35;0.70;;;;;;;20.50;27.69;100428.06;10383844;28;20080;-80
2023/05/19 11:59:07;;;;;;;1.65;1.00;;;;;;;20.20;28.50;100421.94;10367151;28;20061;-80
2023/05/19 12:04:09;;;;;;;2.08;0.80;;;;;;;19.81;28.70;100422.03;10370574;28;20060;-79
2023/05/19 12:09:11;;;;;;;1.73;1.08;;;;;;;20.24;27.71;100403.91;10384420;28;20050;-79
2023/05/19 12:14:14;;;;;;;1.40;1.00;;;;;;;20.24;28.50;100422.50;10391346;28;20057;-79
2023/05/19 12:19:16;;;;;;;1.83;1.05;;;;;;;20.45;28.66;100411.69;10385756;28;20042;-80
2023/05/19 12:24:19;;;;;;;0.95;0.70;;;;;;;20.72;28.73;100403.84;10390240;28;20060;-81
2023/05/19 12:29:21;;;;;;;1.15;1.00;;;;;;;20.47;28.46;100392.00;10381917;28;20045;-80
2023/05/19 12:34:24;;;;;;;2.13;0.95;;;;;;;20.17;28.61;100397.50;10385015;28;20050;-80
2023/05/19 12:39:27;;;;;;;1.20;0.95;;;;;;;20.29;27.29;100399.84;10397652;28;20037;-82
2023/05/19 12:44:38;;;;;;;2.45;1.08;;;;;;;20.57;28.12;100400.78;10402628;28;20045;-82
2023/05/19 12:49:59;;;;;;;1.95;1.00;;;;;;;20.84;26.94;100395.56;10392088;28;20044;-82
2023/05/19 12:55:06;;;;;;;1.08;0.88;;;;;;;21.25;27.72;100391.56;10402132;28;20037;-82
2023/05/19 13:00:24;;;;;;;1.25;1.00;;;;;;;21.33;28.98;100382.88;10398002;28;20041;-83
2023/05/19 13:05:27;;;;;;;1.65;1.00;;;;;;;21.66;28.49;100371.59;10391951;28;20044;-82
2023/05/19 13:10:30;;;;;;;2.47;0.90;;;;;;;;;;10393817;28;20487;-83
2023/05/19 13:15:36;;;;;;;1.92;0.90;;;;;;;21.37;28.89;100365.63;10399793;28;20502;-82
2023/05/19 13:20:40;;;;;;;1.95;0.88;;;;;;;21.58;29.72;100363.50;10390362;28;20158;-84
2023/05/19 13:25:43;;;;;;;1.52;0.95;;;;;;;21.92;28.71;100361.00;10380563;28;20569;-82
2023/05/19 13:30:48;;;;;;;2.05;1.00;;;;;;;21.11;28.42;100364.63;10363648;28;20048;-83
2023/05/19 13:36:17;;;;;;;1.90;1.00;;;;;;;21.12;28.73;100361.81;10367748;28;20046;-83
2023/05/19 13:41:28;;;;;;;2.85;1.08;;;;;;;21.45;28.22;100350.59;10395392;28;20124;-83
2023/05/19 13:46:32;;;;;;;2.35;1.20;;;;;;;21.27;28.56;100343.53;10401540;28;21680;-84
2023/05/19 13:51:48;;;;;;;1.83;0.90;;;;;;;21.12;29.58;100355.66;10383866;28;20050;-83
2023/05/19 13:56:52;;;;;;;2.65;1.20;;;;;;;21.29;29.01;100344.22;10369097;28;20046;-83
2023/05/19 14:01:56;;;;;;;2.45;1.08;;;;;;;21.27;29.47;100346.19;10385132;28;20050;-83
2023/05/19 14:07:05;;;;;;;1.45;0.95;;;;;;;21.49;28.53;100337.81;10379561;28;20045;-83
2023/05/19 14:12:18;;;;;;;1.65;0.90;;;;;;;21.66;29.68;100335.13;10399616;28;20449;-83
2023/05/19 14:17:26;;;;;;;1.27;0.90;;;;;;;21.51;29.11;100334.00;10363912;28;20052;-83
2023/05/19 14:22:28;;;;;;;2.03;1.08;;;;;;;20.78;28.91;100339.47;10397006;28;20468;-83
2023/05/19 14:27:30;;;;;;;3.22;1.20;;;;;;;20.89;28.94;100339.25;10378185;28;20061;-83
2023/05/19 14:32:33;;;;;;;1.95;1.00;;;;;;;21.24;28.93;100333.19;10375569;28;20037;-84
2023/05/19 14:37:40;;;;;;;1.15;0.95;;;;;;;21.34;28.63;100334.81;10384367;28;20068;-84
2023/05/19 14:42:42;;;;;;;3.28;1.08;;;;;;;21.17;29.02;100330.28;10404752;28;20047;-84
2023/05/19 14:47:51;;;;;;;1.60;1.10;;;;;;;21.28;29.51;100331.88;10411245;28;20069;-84
2023/05/19 14:52:55;;;;;;;;;;;;;;;21.21;29.03;100329.03;10408135;28;20099;-84
2023/05/19 14:57:58;;;;;;;1.83;1.00;;;;;;;20.91;29.58;100321.31;10404648;28;20091;-83
2023/05/19 15:03:01;;;;;;;4.53;1.23;;;;;;;20.93;30.42;100328.19;10408745;28;20048;-83
2023/05/19 15:08:04;;;;;;;2.00;1.02;;;;;;;20.79;30.59;100326.00;10393383;28;20058;-83
2023/05/19 15:13:08;;;;;;;1.60;1.05;;;;;;;20.49;30.82;100320.94;10396057;28;20367;-83
2023/05/19 15:18:11;;;;;;;1.58;1.00;;;;;;;20.26;30.98;100319.59;10409137;28;20444;-84
2023/05/19 15:23:14;;;;;;;2.10;1.10;;;;;;;20.67;30.21;100319.22;10385240;28;20103;-84
2023/05/19 15:28:16;;;;;;;1.77;1.10;;;;;;;21.08;30.09;100310.75;10366325;28;20041;-85
2023/05/19 15:33:18;;;;;;;2.03;0.75;;;;;;;21.08;30.38;100313.41;10382405;28;20038;-85
2023/05/19 15:38:20;;;;;;;2.78;1.40;;;;;;;21.00;30.54;100313.31;10387808;28;20041;-84
2023/05/19 15:43:22;;;;;;;1.88;1.08;;;;;;;21.17;30.33;100305.53;10400914;28;20055;-85
2023/05/19 15:48:27;;;;;;;1.23;0.90;;;;;;;21.36;30.39;100308.91;10417424;28;20132;-85
2023/05/19 15:53:29;;;;;;;2.13;1.13;;;;;;;20.40;30.78;100313.81;10393741;28;20134;-84
2023/05/19 15:58:31;;;;;;;1.70;1.23;;;;;;;20.25;30.86;100316.09;10395008;28;20172;-85
2023/05/19 16:03:33;;;;;;;2.10;1.10;;;;;;;20.70;30.82;100312.78;10405224;28;20033;-84
2023/05/19 16:08:36;;;;;;;0.90;0.85;;;;;;;21.01;31.27;100309.66;10407615;28;20103;-84
2023/05/19 16:13:38;;;;;;;2.33;1.08;;;;;;;20.87;31.84;100302.19;10398262;28;20049;-84
2023/05/19 16:18:42;;;;;;;1.10;0.90;;;;;;;20.53;31.90;100305.53;10408244;28;20068;-84
2023/05/19 16:23:44;;;;;;;2.22;1.20;;;;;;;20.56;31.53;100303.41;10368208;28;20088;-85
2023/05/19 16:28:46;;;;;;;3.67;1.05;;;;;;;20.86;31.61;100300.53;10368721;28;20069;-84
2023/05/19 16:33:48;;;;;;;1.30;1.00;;;;;;;20.71;31.88;100302.00;10403805;28;20128;-85
2023/05/19 16:38:52;;;;;;;1.17;1.00;;;;;;;20.57;32.00;100301.59;10371195;28;20108;-84
2023/05/19 16:43:54;;;;;;;1.42;1.00;;;;;;;20.32;31.89;100297.78;10367919;28;20050;-84
2023/05/19 16:48:56;;;;;;;1.45;1.00;;;;;;;19.64;32.29;100300.66;10368486;28;20061;-85
2023/05/19 16:53:57;;;;;;;1.92;1.15;;;;;;;19.60;32.44;100296.63;10378377;28;20060;-85
2023/05/19 16:58:59;;;;;;;1.45;1.00;;;;;;;19.54;32.34;100305.16;10409636;28;20041;-84
2023/05/19 17:04:01;;;;;;;2.10;1.10;;;;;;;19.21;32.41;100298.41;10408740;28;20045;-85
2023/05/19 17:09:03;;;;;;;2.08;1.10;;;;;;;19.57;32.20;100302.19;10404851;28;20034;-84
2023/05/19 17:14:07;;;;;;;1.50;1.15;;;;;;;19.32;32.44;100301.78;10390474;28;20522;-84
2023/05/19 17:19:10;;;;;;;1.75;1.10;;;;;;;19.62;32.59;100294.66;10400764;28;20072;-83
2023/05/19 17:24:12;;;;;;;1.63;1.15;;;;;;;19.55;32.48;100301.50;10393965;28;20506;-84
2023/05/19 17:29:14;;;;;;;1.92;1.00;;;;;;;19.47;32.27;100296.91;10407428;28;20053;-84
2023/05/19 17:34:16;;;;;;;1.40;1.10;;;;;;;18.93;32.67;100299.16;10407299;28;20379;-83
2023/05/19 17:39:19;;;;;;;4.15;1.00;;;;;;;18.89;32.76;100303.88;10404160;28;20076;-83
2023/05/19 17:44:20;;;;;;;1.52;1.00;;;;;;;19.14;32.46;100303.44;10366727;28;20049;-84
2023/05/19 17:49:24;;;;;;;1.27;1.10;;;;;;;19.21;32.15;100304.56;10366598;28;20049;-83
2023/05/19 17:54:26;;;;;;;2.00;1.10;;;;;;;19.10;32.63;100301.19;10366756;28;20124;-83
2023/05/19 17:59:29;;;;;;;1.27;0.98;;;;;;;19.19;32.81;100298.56;10371348;28;20566;-83
2023/05/19 18:04:31;;;;;;;1.55;1.00;;;;;;;19.17;33.29;100308.47;10376212;28;20045;-83
2023/05/19 18:09:36;;;;;;;2.33;1.25;;;;;;;19.29;32.67;100312.66;10395323;28;20043;-83
2023/05/19 18:14:38;;;;;;;1.23;0.80;;;;;;;19.19;32.92;100310.97;10412386;28;20421;-82
2023/05/19 18:19:40;;;;;;;2.35;1.13;;;;;;;19.10;32.93;100317.09;10404057;28;20493;-85
2023/05/19 18:24:42;;;;;;;1.70;1.00;;;;;;;18.92;32.67;100316.03;10409955;28;20041;-84
2023/05/19 18:29:44;;;;;;;1.55;1.05;;;;;;;18.56;32.72;100306.84;10374581;28;20049;-84
2023/05/19 18:34:46;;;;;;;2.72;1.20;;;;;;;18.14;33.26;100321.06;10391967;28;20033;-84
2023/05/19 18:39:49;;;;;;;3.95;1.10;;;;;;;17.98;33.72;100320.69;10413433;28;20061;-84
2023/05/19 18:44:51;;;;;;;1.35;0.93;;;;;;;17.82;34.02;100337.03;10390196;28;20132;-85
2023/05/19 18:49:53;;;;;;;1.95;1.17;;;;;;;17.70;34.42;100335.41;10411958;28;20041;-85
2023/05/19 18:54:55;;;;;;;1.52;0.85;;;;;;;17.06;35.97;100354.81;10412115;28;20045;-85
2023/05/19 18:59:57;;;;;;;1.65;0.98;;;;;;;16.83;35.78;100356.63;10414065;28;20042;-85
2023/05/19 19:05:00;;;;;;;1.83;1.10;;;;;;;16.71;35.93;100368.97;10422043;28;20150;-84
2023/05/19 19:10:02;;;;;;;1.65;1.00;;;;;;;16.42;36.72;100372.16;10432837;28;20041;-85
2023/05/19 19:15:04;;;;;;;2.08;1.13;;;;;;;16.48;36.86;100377.00;10396120;28;20041;-85
2023/05/19 19:20:07;;;;;;;1.35;0.95;;;;;;;16.37;36.98;100380.44;10413637;28;20041;-85
2023/05/19 19:25:09;;;;;;;2.45;1.10;;;;;;;16.20;36.75;100375.63;10409997;28;20053;-82
2023/05/19 19:30:11;;;;;;;1.38;1.00;;;;;;;16.15;36.95;100385.66;10390265;28;20056;-81
2023/05/19 19:35:14;;;;;;;2.13;0.77;;;;;;;16.02;37.20;100379.63;10405357;28;20037;-82
2023/05/19 19:40:16;;;;;;;1.10;0.90;;;;;;;16.00;37.16;100387.66;10411344;28;20554;-82
2023/05/19 19:45:19;;;;;;;1.08;0.90;;;;;;;15.95;37.42;100387.16;10392569;28;20075;-82
2023/05/19 19:50:22;;;;;;;2.20;1.10;;;;;;;15.85;37.83;100387.97;10394230;28;20483;-82
2023/05/19 19:55:24;;;;;;;1.70;1.20;;;;;;;15.74;37.90;100394.03;10416065;28;20049;-82
2023/05/19 20:00:26;;;;;;;1.95;1.27;;;;;;;15.60;38.08;100398.63;10406909;28;20037;-82
2023/05/19 20:05:28;;;;;;;1.60;1.13;;;;;;;15.45;38.05;100394.44;10399129;28;20075;-82
2023/05/19 20:10:30;;;;;;;1.60;1.10;;;;;;;15.36;38.47;100396.81;10396956;28;20053;-82
2023/05/19 20:15:32;;;;;;;2.75;1.10;;;;;;;15.03;38.12;100403.63;10394418;28;20095;-81
2023/05/19 20:20:34;;;;;;;2.30;1.17;;;;;;;15.07;38.31;100405.94;10397651;28;20533;-82
2023/05/19 20:25:40;;;;;;;2.03;1.10;;;;;;;14.97;38.30;100409.31;10403019;28;20089;-82
2023/05/19 20:30:55;;;;;;;2.03;1.02;;;;;;;14.95;38.19;100401.53;10399844;28;20128;-82
2023/05/19 20:35:57;;;;;;;1.63;1.15;;;;;;;14.91;38.44;100407.97;10389372;28;20076;-82
2023/05/19 20:40:59;;;;;;;2.15;1.05;;;;;;;14.87;38.84;100413.53;10375148;28;20519;-82
2023/05/19 20:46:02;;;;;;;1.42;0.90;;;;;;;14.88;39.24;100417.88;10405541;28;20123;-82
2023/05/19 20:51:04;;;;;;;1.92;0.95;;;;;;;14.72;39.75;100406.69;10385843;28;20073;-82
2023/05/19 20:56:09;;;;;;;2.33;1.00;;;;;;;14.57;39.98;100414.72;10405649;28;20441;-82
2023/05/19 21:01:11;;;;;;;1.33;0.85;;;;;;;14.45;40.55;100414.69;10365813;28;20061;-82
2023/05/19 21:06:13;;;;;;;1.48;0.90;;;;;;;14.37;40.57;100409.94;10386276;28;20033;-82
2023/05/19 21:11:14;;;;;;;1.65;1.00;;;;;;;14.22;40.80;100418.88;10406073;28;20493;-82
2023/05/19 21:16:16;;;;;;;1.83;1.17;;;;;;;14.13;41.32;100423.88;10406180;28;20045;-82
2023/05/19 21:21:18;;;;;;;1.67;1.20;;;;;;;14.10;41.14;100419.69;10369310;28;20132;-82
2023/05/19 21:26:20;;;;;;;1.02;0.85;;;;;;;13.93;41.17;100427.84;10377039;28;20056;-82
2023/05/19 21:31:22;;;;;;;1.80;1.10;;;;;;;13.97;41.36;100428.47;10382125;28;20051;-82
2023/05/19 21:36:24;;;;;;;1.92;0.90;;;;;;;14.17;41.57;100431.47;10356744;28;20388;-82
2023/05/19 21:41:26;;;;;;;2.40;1.08;;;;;;;14.28;41.53;100426.34;10405039;28;20136;-82
2023/05/19 21:46:28;;;;;;;1.05;0.93;;;;;;;14.29;41.80;100425.38;10405717;28;20034;-82
2023/05/19 21:51:30;;;;;;;1.77;1.08;;;;;;;14.29;41.60;100424.53;10391182;28;20045;-82
2023/05/19 21:56:32;;;;;;;2.03;1.10;;;;;;;14.19;41.42;100413.81;10404089;28;20046;-82
2023/05/19 22:01:34;;;;;;;1.58;1.13;;;;;;;14.16;41.68;100421.06;10405173;28;20041;-82
2023/05/19 22:06:36;;;;;;;1.98;1.10;;;;;;;14.08;42.04;100413.69;10384048;28;20049;-82
2023/05/19 22:11:38;;;;;;;1.92;1.00;;;;;;;14.02;42.04;100416.72;10382172;28;20038;-82
2023/05/19 22:16:40;;;;;;;1.65;1.10;;;;;;;13.86;42.70;100416.03;10387816;28;20063;-82
2023/05/19 22:21:42;;;;;;;1.38;1.00;;;;;;;13.68;43.40;100411.97;10407555;28;20095;-82
2023/05/19 22:26:45;;;;;;;1.77;1.00;;;;;;;13.52;43.74;100409.50;10406769;28;20055;-82
2023/05/19 22:31:47;;;;;;;2.40;1.10;;;;;;;13.49;43.67;100400.97;10406136;28;20052;-82
2023/05/19 22:36:49;;;;;;;2.28;1.02;;;;;;;13.42;43.70;100402.25;10406098;28;20052;-82
2023/05/19 22:41:51;;;;;;;1.75;1.10;;;;;;;13.29;43.74;100401.38;10406521;28;20045;-83
2023/05/19 22:46:53;;;;;;;1.55;1.08;;;;;;;13.20;44.35;100402.78;10379702;28;20046;-82
2023/05/19 22:51:55;;;;;;;2.28;1.20;;;;;;;13.06;44.33;100399.34;10375318;28;20053;-82
2023/05/19 22:56:57;;;;;;;2.00;1.17;;;;;;;12.71;45.18;100401.53;10397666;28;20053;-82
2023/05/19 23:01:59;;;;;;;2.13;1.17;;;;;;;12.66;45.58;100401.78;10395929;28;20044;-82
2023/05/19 23:07:00;;;;;;;1.60;0.90;;;;;;;12.63;45.55;100396.75;10414435;28;20053;-82
2023/05/19 23:12:02;;;;;;;2.10;1.13;;;;;;;12.59;45.73;100399.66;10413987;28;20048;-82
2023/05/19 23:17:04;;;;;;;2.25;1.05;;;;;;;12.23;46.25;100412.31;10412641;28;20457;-82
2023/05/19 23:22:06;;;;;;;1.60;1.20;;;;;;;11.99;47.04;100412.78;10388949;28;20041;-82